Time;durP1;ratioP1;P1;durP2;ratioP2;P2;SDS_P1;SDS_P2;PMS_P1;PMS_P2;Temp;Humidity;BMP_temperature;BMP_pressure;BME280_temperature;BME280_humidity;BME280_pressure;Samples;Min_cycle;Max_cycle;Signal;HPM_P1;HPM_P2
2024/01/02 00:02:07;;;;;;;7.45;2.80;;;5.70;62.10;;;;;;4984343;28;115251;-82
2024/01/02 00:04:35;;;;;;;7.43;2.67;;;5.80;62.30;;;;;;5004892;28;115260;-82
2024/01/02 00:07:02;;;;;;;8.88;3.05;;;5.80;62.50;;;;;;5007274;28;114281;-82
2024/01/02 00:09:30;;;;;;;7.53;2.30;;;5.70;62.60;;;;;;4989069;28;114470;-82
2024/01/02 00:11:57;;;;;;;5.90;2.33;;;5.70;62.80;;;;;;4971787;28;115104;-82
2024/01/02 00:14:28;;;;;;;7.60;2.38;;;5.70;63.20;;;;;;5006979;28;114773;-82
2024/01/02 00:16:56;;;;;;;8.07;2.33;;;5.70;63.50;;;;;;5007163;28;114530;-82
2024/01/02 00:19:23;;;;;;;8.52;2.70;;;5.80;63.60;;;;;;5007116;28;114436;-83
2024/01/02 00:21:52;;;;;;;7.90;2.50;;;5.80;63.70;;;;;;5006012;28;114996;-83
2024/01/02 00:24:20;;;;;;;6.43;2.65;;;5.80;63.90;;;;;;4988568;28;117924;-83
2024/01/02 00:26:47;;;;;;;12.57;2.85;;;5.90;63.90;;;;;;5005837;28;114365;-83
2024/01/02 00:29:14;;;;;;;6.65;2.80;;;5.90;63.90;;;;;;5006007;28;114544;-82
2024/01/02 00:31:44;;;;;;;6.32;2.67;;;5.90;64.00;;;;;;5005518;28;117358;-83
2024/01/02 00:34:13;;;;;;;7.82;2.53;;;5.90;64.00;;;;;;5005096;28;115444;-84
2024/01/02 00:36:41;;;;;;;6.30;2.10;;;5.90;63.90;;;;;;5004945;28;114412;-82
2024/01/02 00:39:08;;;;;;;6.28;2.53;;;5.90;63.70;;;;;;5006766;28;114260;-80
2024/01/02 00:41:36;;;;;;;6.68;2.50;;;5.90;63.60;;;;;;5010233;28;115241;-82
2024/01/02 00:44:04;;;;;;;4.65;2.22;;;5.90;63.60;;;;;;4991494;28;114780;-83
2024/01/02 00:46:31;;;;;;;7.03;2.42;;;5.90;63.80;;;;;;5005917;28;114404;-82
2024/01/02 00:48:58;;;;;;;8.07;2.50;;;5.90;63.60;;;;;;5005727;28;114486;-82
2024/01/02 00:51:26;;;;;;;7.97;2.75;;;5.90;63.40;;;;;;5004676;28;115050;-83
2024/01/02 00:53:54;;;;;;;7.20;2.38;;;5.80;63.40;;;;;;5006132;28;114604;-81
2024/01/02 00:56:22;;;;;;;7.82;2.78;;;5.80;63.40;;;;;;5006732;28;114460;-81
2024/01/02 00:58:50;;;;;;;7.28;2.70;;;5.80;63.60;;;;;;5006281;28;114553;-81
2024/01/02 01:01:18;;;;;;;8.73;2.55;;;5.80;63.50;;;;;;4987291;28;116850;-81
2024/01/02 01:03:46;;;;;;;8.45;2.50;;;5.80;63.30;;;;;;5005472;28;116107;-81
2024/01/02 01:06:14;;;;;;;6.72;2.40;;;5.80;63.40;;;;;;5006525;28;114288;-81
2024/01/02 01:08:41;;;;;;;7.53;2.60;;;5.80;63.60;;;;;;5006080;28;114777;-81
2024/01/02 01:11:09;;;;;;;7.90;2.90;;;5.80;63.60;;;;;;5005629;28;115237;-82
2024/01/02 01:13:36;;;;;;;7.55;2.58;;;5.80;63.70;;;;;;5005271;28;116634;-83
2024/01/02 01:16:04;;;;;;;6.35;2.60;;;5.80;63.50;;;;;;5005682;28;114525;-82
2024/01/02 01:18:33;;;;;;;7.70;2.42;;;5.70;63.60;;;;;;5008383;28;114230;-83
2024/01/02 01:21:01;;;;;;;7.97;2.88;;;5.70;63.70;;;;;;5007901;28;115173;-82
2024/01/02 01:23:28;;;;;;;4.72;2.10;;;5.70;63.70;;;;;;4988142;28;118029;-81
2024/01/02 01:25:58;;;;;;;5.65;2.33;;;5.70;63.50;;;;;;5004237;28;114288;-81
2024/01/02 01:28:27;;;;;;;7.80;2.53;;;5.70;63.60;;;;;;5004757;28;114450;-82
2024/01/02 01:30:55;;;;;;;10.32;2.70;;;5.70;63.60;;;;;;5006724;28;115128;-80
2024/01/02 01:33:22;;;;;;;8.65;2.42;;;5.70;63.40;;;;;;5030050;28;114142;-82
2024/01/02 01:35:50;;;;;;;4.65;2.28;;;5.70;63.50;;;;;;5012681;28;114292;-80
2024/01/02 01:38:18;;;;;;;7.55;2.67;;;5.80;63.80;;;;;;5008041;28;114318;-82
2024/01/02 01:40:45;;;;;;;5.88;2.45;;;5.80;63.80;;;;;;5005501;28;115229;-82
2024/01/02 01:43:13;;;;;;;6.22;2.38;;;5.80;63.70;;;;;;5005496;28;114831;-80
2024/01/02 01:45:41;;;;;;;5.63;2.65;;;5.80;63.70;;;;;;4972015;28;114365;-80
2024/01/02 01:48:09;;;;;;;7.85;2.30;;;5.80;63.60;;;;;;4987731;28;114435;-83
2024/01/02 01:50:37;;;;;;;9.65;2.92;;;5.80;63.50;;;;;;4986984;28;115984;-82
2024/01/02 01:53:05;;;;;;;5.30;2.30;;;5.70;63.50;;;;;;5004558;28;115109;-83
2024/01/02 01:55:33;;;;;;;7.13;1.98;;;5.80;63.50;;;;;;5004706;28;114340;-83
2024/01/02 01:58:01;;;;;;;5.53;2.30;;;5.80;63.10;;;;;;4988217;28;114150;-82
2024/01/02 02:00:30;;;;;;;6.70;2.22;;;5.80;63.10;;;;;;5003561;28;115273;-82
2024/01/02 02:02:58;;;;;;;6.95;2.00;;;5.70;63.10;;;;;;5003194;28;115893;-83
2024/01/02 02:05:29;;;;;;;6.05;2.30;;;5.70;63.10;;;;;;4988155;28;114324;-83
2024/01/02 02:07:56;;;;;;;7.47;2.00;;;5.70;63.00;;;;;;5006095;28;114193;-82
2024/01/02 02:10:24;;;;;;;7.53;2.03;;;5.70;63.00;;;;;;4986891;28;116359;-82
2024/01/02 02:12:51;;;;;;;5.63;2.28;;;5.70;63.10;;;;;;4986969;28;114691;-82
2024/01/02 02:15:19;;;;;;;6.28;2.47;;;5.70;63.10;;;;;;4987475;28;114249;-83
2024/01/02 02:17:47;;;;;;;9.07;2.75;;;5.70;63.20;;;;;;4987589;28;114527;-83
2024/01/02 02:20:15;;;;;;;7.38;1.83;;;5.70;62.90;;;;;;5003364;28;115144;-81
2024/01/02 02:22:49;;;;;;;8.65;2.40;;;5.70;62.90;;;;;;5003445;28;114636;-82
2024/01/02 02:25:17;;;;;;;6.85;1.80;;;5.70;63.00;;;;;;4982619;28;114339;-81
2024/01/02 02:27:45;;;;;;;6.65;2.10;;;5.70;63.20;;;;;;5004312;28;114801;-81
2024/01/02 02:30:13;;;;;;;6.72;2.33;;;5.70;63.10;;;;;;5004658;28;115122;-81
2024/01/02 02:32:40;;;;;;;8.40;2.25;;;5.70;63.00;;;;;;4987466;28;114764;-81
2024/01/02 02:35:08;;;;;;;6.43;2.17;;;5.70;63.00;;;;;;5006023;28;114306;-81
2024/01/02 02:37:36;;;;;;;6.38;2.10;;;5.70;62.90;;;;;;5005436;28;114744;-81
2024/01/02 02:40:05;;;;;;;4.05;1.58;;;5.70;62.90;;;;;;5002483;28;115301;-81
2024/01/02 02:42:32;;;;;;;9.85;2.20;;;5.70;62.60;;;;;;5004096;28;116201;-81
2024/01/02 02:45:00;;;;;;;6.80;2.10;;;5.70;62.60;;;;;;5005169;28;114539;-81
2024/01/02 02:47:27;;;;;;;7.32;2.22;;;5.70;62.90;;;;;;5006308;28;114316;-82
2024/01/02 02:49:55;;;;;;;6.35;2.25;;;5.70;62.70;;;;;;5007724;28;115130;-80
2024/01/02 02:52:23;;;;;;;8.50;1.77;;;5.60;62.70;;;;;;5007617;28;114666;-82
2024/01/02 02:54:50;;;;;;;8.57;2.05;;;5.60;62.70;;;;;;5008517;28;114202;-80
2024/01/02 02:57:17;;;;;;;6.22;2.08;;;5.70;62.80;;;;;;5007736;28;114380;-81
2024/01/02 02:59:45;;;;;;;8.98;1.83;;;5.70;62.80;;;;;;5005970;28;115804;-81
2024/01/02 03:02:13;;;;;;;7.35;2.03;;;5.70;62.80;;;;;;4989657;28;114659;-81
2024/01/02 03:04:40;;;;;;;5.28;1.90;;;5.70;62.60;;;;;;5007880;28;114261;-81
2024/01/02 03:07:09;;;;;;;7.32;2.58;;;5.60;62.50;;;;;;5007097;28;114440;-81
2024/01/02 03:09:37;;;;;;;5.25;1.73;;;5.60;62.70;;;;;;4989688;28;115836;-81
2024/01/02 03:12:05;;;;;;;3.80;1.55;;;5.60;62.60;;;;;;4973137;28;114621;-81
2024/01/02 03:14:37;;;;;;;7.18;1.88;;;5.60;62.60;;;;;;5007175;28;114357;-81
2024/01/02 03:17:05;;;;;;;4.95;2.47;;;5.60;62.30;;;;;;5022421;28;114221;-81
2024/01/02 03:19:33;;;;;;;7.10;2.00;;;5.60;62.50;;;;;;5019281;28;114028;-81
2024/01/02 03:22:01;;;;;;;8.88;1.77;;;5.60;62.40;;;;;;5007404;28;114796;-81
2024/01/02 03:24:28;;;;;;;7.55;2.10;;;5.60;62.50;;;;;;4990341;28;114772;-81
2024/01/02 03:26:56;;;;;;;5.53;1.90;;;5.60;62.60;;;;;;4990110;28;114643;-82
2024/01/02 03:29:26;;;;;;;5.55;1.95;;;5.60;62.80;;;;;;5007027;28;116375;-81
2024/01/02 03:31:54;;;;;;;5.57;2.00;;;5.60;62.50;;;;;;5005751;28;114801;-81
2024/01/02 03:34:22;;;;;;;9.05;2.65;;;5.60;62.70;;;;;;5007817;28;114425;-81
2024/01/02 03:36:50;;;;;;;7.95;1.92;;;5.60;62.70;;;;;;5007664;28;114717;-81
2024/01/02 03:39:17;;;;;;;6.95;2.50;;;5.60;62.70;;;;;;5005785;28;115231;-81
2024/01/02 03:41:44;;;;;;;5.97;1.88;;;5.60;62.70;;;;;;5005693;28;114639;-81
2024/01/02 03:44:11;;;;;;;6.57;1.73;;;5.50;62.90;;;;;;5006738;28;114599;-82
2024/01/02 03:46:41;;;;;;;5.22;1.67;;;5.60;62.80;;;;;;5008324;28;114052;-82
2024/01/02 03:49:08;;;;;;;13.00;2.65;;;5.50;62.60;;;;;;5005790;28;115081;-82
2024/01/02 03:51:36;;;;;;;5.85;2.33;;;5.50;62.40;;;;;;5007009;28;114621;-82
2024/01/02 03:54:03;;;;;;;4.70;1.80;;;5.40;62.40;;;;;;5006011;28;114365;-83
2024/01/02 03:56:31;;;;;;;9.57;1.85;;;5.40;62.40;;;;;;5008165;28;114323;-83
2024/01/02 03:58:58;;;;;;;6.40;1.77;;;5.40;62.50;;;;;;5005469;28;115143;-83
2024/01/02 04:01:25;;;;;;;7.72;2.33;;;5.30;62.50;;;;;;5005393;28;114713;-83
2024/01/02 04:03:52;;;;;;;10.50;2.20;;;5.40;62.60;;;;;;5007470;28;114351;-83
2024/01/02 04:06:21;;;;;;;9.35;2.50;;;5.30;62.70;;;;;;5013263;28;114248;-84
2024/01/02 04:08:48;;;;;;;8.55;2.03;;;5.30;62.80;;;;;;5017334;28;114100;-83
2024/01/02 04:11:17;;;;;;;8.25;1.95;;;5.30;62.80;;;;;;5007437;28;114793;-83
2024/01/02 04:13:45;;;;;;;4.18;1.70;;;5.30;63.00;;;;;;5007782;28;114172;-83
2024/01/02 04:16:13;;;;;;;6.65;2.15;;;5.30;62.90;;;;;;5006623;28;114911;-83
2024/01/02 04:18:44;;;;;;;7.82;2.58;;;5.30;63.00;;;;;;5006095;28;115275;-84
2024/01/02 04:21:12;;;;;;;9.18;2.15;;;5.30;62.90;;;;;;5005283;28;114602;-83
2024/01/02 04:23:40;;;;;;;12.23;2.03;;;5.30;62.90;;;;;;5007264;28;114389;-84
2024/01/02 04:26:08;;;;;;;6.03;2.00;;;5.40;62.90;;;;;;5006923;28;114894;-83
2024/01/02 04:28:35;;;;;;;7.38;1.85;;;5.30;62.80;;;;;;4988066;28;116253;-83
2024/01/02 04:31:03;;;;;;;13.20;3.95;;;5.40;62.70;;;;;;5005925;28;115069;-83
2024/01/02 04:33:30;;;;;;;5.60;1.75;;;5.40;62.60;;;;;;5007184;28;114234;-83
2024/01/02 04:35:58;;;;;;;7.15;1.80;;;5.40;62.80;;;;;;5007226;28;114301;-83
2024/01/02 04:38:25;;;;;;;6.93;2.50;;;5.40;62.80;;;;;;5004793;28;115542;-83
2024/01/02 04:40:52;;;;;;;10.88;2.72;;;5.40;62.70;;;;;;5005921;28;115845;-83
2024/01/02 04:43:24;;;;;;;9.63;2.28;;;5.40;62.80;;;;;;5005063;28;114285;-83
2024/01/02 04:45:53;;;;;;;7.57;2.58;;;5.40;62.60;;;;;;5005315;28;114515;-83
2024/01/02 04:48:37;;;;;;;6.93;2.50;;;5.40;62.50;;;;;;4976793;28;115240;-83
2024/01/02 04:51:05;;;;;;;8.63;1.80;;;5.30;62.50;;;;;;5004068;28;114648;-83
2024/01/02 04:53:32;;;;;;;8.00;1.90;;;5.30;62.50;;;;;;5006805;28;114555;-83
2024/01/02 04:55:59;;;;;;;8.13;2.13;;;5.30;62.40;;;;;;5006461;28;114480;-82
2024/01/02 04:58:27;;;;;;;7.35;2.55;;;5.20;62.40;;;;;;5005891;28;115110;-82
2024/01/02 05:00:55;;;;;;;7.63;2.28;;;5.20;62.50;;;;;;5012940;28;114574;-85
2024/01/02 05:03:23;;;;;;;6.78;2.10;;;5.20;62.50;;;;;;5025796;28;114107;-82
2024/01/02 05:05:50;;;;;;;4.82;2.00;;;5.20;62.40;;;;;;5005512;28;114330;-83
2024/01/02 05:08:19;;;;;;;8.73;2.08;;;5.20;62.80;;;;;;5005071;28;115416;-83
2024/01/02 05:10:46;;;;;;;8.93;2.40;;;5.10;62.60;;;;;;4986906;28;114795;-81
2024/01/02 05:13:13;;;;;;;7.20;1.90;;;5.10;62.70;;;;;;5005906;28;114130;-81
2024/01/02 05:15:43;;;;;;;5.78;2.70;;;5.10;62.60;;;;;;5005188;28;114679;-81
2024/01/02 05:18:12;;;;;;;7.35;2.08;;;5.10;62.60;;;;;;5005320;28;115086;-81
2024/01/02 05:20:40;;;;;;;7.50;2.13;;;5.00;62.90;;;;;;5005463;28;114704;-81
2024/01/02 05:23:07;;;;;;;9.55;2.00;;;5.00;63.00;;;;;;5004851;28;114349;-81
2024/01/02 05:25:43;;;;;;;7.05;2.03;;;5.00;63.10;;;;;;5006663;28;114571;-81
2024/01/02 05:28:10;;;;;;;6.55;1.90;;;5.00;62.90;;;;;;5003591;28;115056;-82
2024/01/02 05:30:39;;;;;;;8.32;2.10;;;5.00;62.90;;;;;;5006051;28;114214;-82
2024/01/02 05:33:06;;;;;;;7.25;2.17;;;5.00;63.00;;;;;;5004476;28;114301;-82
2024/01/02 05:35:34;;;;;;;7.65;2.00;;;5.00;63.30;;;;;;5006029;28;114481;-83
2024/01/02 05:38:03;;;;;;;7.85;1.75;;;4.90;63.20;;;;;;4987392;28;115057;-82
2024/01/02 05:40:31;;;;;;;8.05;1.77;;;5.00;63.10;;;;;;5003997;28;114751;-84
2024/01/02 05:42:58;;;;;;;9.65;2.20;;;5.00;63.10;;;;;;5006001;28;114552;-82
2024/01/02 05:45:25;;;;;;;11.55;2.05;;;5.00;63.00;;;;;;5005925;28;114594;-82
2024/01/02 05:47:53;;;;;;;11.18;2.50;;;5.00;63.00;;;;;;4989008;28;115293;-83
2024/01/02 05:50:21;;;;;;;5.40;1.67;;;4.90;62.80;;;;;;5011676;28;114793;-82
2024/01/02 05:52:48;;;;;;;7.45;1.90;;;4.90;63.00;;;;;;5004688;28;114398;-82
2024/01/02 05:55:15;;;;;;;5.03;2.20;;;5.00;63.00;;;;;;5005103;28;114629;-83
2024/01/02 05:57:43;;;;;;;8.50;2.25;;;4.90;62.90;;;;;;5004678;28;115004;-82
2024/01/02 06:00:10;;;;;;;12.18;2.42;;;4.90;63.00;;;;;;5003945;28;114535;-82
2024/01/02 06:02:38;;;;;;;8.15;2.80;;;4.90;62.70;;;;;;4988151;28;114743;-82
2024/01/02 06:05:06;;;;;;;8.23;2.78;;;4.90;62.70;;;;;;5004955;28;114443;-82
2024/01/02 06:07:33;;;;;;;7.20;2.30;;;4.90;63.10;;;;;;5003880;28;115271;-82
2024/01/02 06:10:03;;;;;;;7.28;2.10;;;4.90;63.10;;;;;;4988366;28;114667;-82
2024/01/02 06:12:30;;;;;;;7.50;2.58;;;4.80;63.00;;;;;;5006015;28;114415;-82
2024/01/02 06:14:58;;;;;;;11.35;2.60;;;4.90;63.10;;;;;;5005948;28;114730;-82
2024/01/02 06:17:25;;;;;;;9.90;2.65;;;4.80;63.10;;;;;;4973977;28;117124;-81
2024/01/02 06:19:53;;;;;;;12.35;3.78;;;4.80;63.10;;;;;;4984979;28;118086;-81
2024/01/02 06:22:20;;;;;;;10.45;2.88;;;4.80;63.20;;;;;;5017404;27;114418;-83
2024/01/02 06:24:48;;;;;;;5.32;2.22;;;4.80;63.40;;;;;;5013598;28;114578;-82
2024/01/02 06:27:19;;;;;;;6.70;2.33;;;4.80;63.60;;;;;;4980334;28;115531;-82
2024/01/02 06:29:46;;;;;;;12.90;2.88;;;4.80;63.80;;;;;;4980357;28;115345;-83
2024/01/02 06:32:16;;;;;;;9.45;2.75;;;4.80;63.40;;;;;;5020406;27;117353;-83
2024/01/02 06:34:43;;;;;;;7.43;2.47;;;4.80;63.40;;;;;;5023720;27;114585;-82
2024/01/02 06:37:11;;;;;;;9.93;3.58;;;4.80;63.30;;;;;;5018013;27;115241;-82
2024/01/02 06:39:41;;;;;;;9.30;3.03;;;4.80;63.30;;;;;;5013799;27;114847;-83
2024/01/02 06:42:09;;;;;;;9.55;3.50;;;4.70;63.20;;;;;;4979786;27;114428;-83
2024/01/02 06:44:36;;;;;;;9.30;3.67;;;4.80;63.10;;;;;;4987826;28;114580;-83
2024/01/02 06:47:04;;;;;;;9.73;3.30;;;4.70;62.90;;;;;;5012488;27;115215;-82
2024/01/02 06:49:31;;;;;;;13.38;3.70;;;4.70;62.40;;;;;;5040265;27;113561;-81
2024/01/02 06:52:00;;;;;;;14.30;5.68;;;4.60;63.00;;;;;;4996592;28;114582;-81
2024/01/02 06:54:27;;;;;;;12.60;5.57;;;4.60;63.40;;;;;;5019849;27;115324;-82
2024/01/02 06:56:54;;;;;;;13.38;4.20;;;4.60;63.80;;;;;;5025707;28;115644;-82
2024/01/02 06:59:24;;;;;;;8.63;4.00;;;4.60;63.90;;;;;;5012192;28;116048;-82
2024/01/02 07:01:54;;;;;;;10.27;3.70;;;4.60;63.70;;;;;;5014009;28;114577;-82
2024/01/02 07:04:24;;;;;;;14.77;5.60;;;4.70;63.60;;;;;;5013322;28;114896;-82
2024/01/02 07:06:53;;;;;;;14.68;5.35;;;4.70;63.60;;;;;;5021558;27;118165;-82
2024/01/02 07:09:20;;;;;;;11.63;3.88;;;4.70;63.60;;;;;;5009598;28;115217;-83
2024/01/02 07:11:48;;;;;;;13.68;4.53;;;4.70;63.40;;;;;;5013022;28;114754;-83
2024/01/02 07:14:15;;;;;;;10.60;3.55;;;4.70;63.30;;;;;;5016360;27;114928;-82
2024/01/02 07:16:42;;;;;;;15.60;5.97;;;4.70;63.40;;;;;;5016271;28;115274;-82
2024/01/02 07:19:10;;;;;;;13.88;5.57;;;4.70;63.50;;;;;;5022332;27;114639;-82
2024/01/02 07:21:37;;;;;;;13.38;5.30;;;4.70;63.60;;;;;;5029827;27;114903;-80
2024/01/02 07:24:05;;;;;;;13.32;4.95;;;4.70;63.70;;;;;;4997961;28;114580;-82
2024/01/02 07:26:32;;;;;;;16.95;5.65;;;4.70;63.70;;;;;;5017141;28;115722;-81
2024/01/02 07:29:01;;;;;;;16.23;4.60;;;4.70;63.40;;;;;;5027511;27;114677;-81
2024/01/02 07:31:32;;;;;;;11.50;4.70;;;4.60;63.50;;;;;;5012164;27;114504;-81
2024/01/02 07:33:59;;;;;;;14.65;4.75;;;4.70;63.90;;;;;;5012348;27;114852;-82
2024/01/02 07:36:29;;;;;;;11.57;4.90;;;4.70;63.90;;;;;;5013698;28;115511;-83
2024/01/02 07:38:57;;;;;;;10.18;4.43;;;4.70;63.60;;;;;;5011469;28;116284;-82
2024/01/02 07:41:24;;;;;;;8.57;3.70;;;4.70;63.70;;;;;;5013159;28;114481;-83
2024/01/02 07:43:52;;;;;;;10.60;4.00;;;4.70;63.80;;;;;;5015518;28;114432;-82
2024/01/02 07:46:19;;;;;;;10.45;4.70;;;4.70;64.00;;;;;;5003608;28;117610;-81
2024/01/02 07:48:47;;;;;;;8.32;4.05;;;4.70;63.90;;;;;;5003977;28;114931;-83
2024/01/02 07:51:14;;;;;;;9.60;4.00;;;4.80;63.90;;;;;;5007708;28;114502;-83
2024/01/02 07:53:41;;;;;;;11.75;3.90;;;4.80;63.90;;;;;;5006732;28;114280;-82
2024/01/02 07:56:09;;;;;;;7.47;3.55;;;4.80;63.80;;;;;;5006671;28;115187;-81
2024/01/02 07:58:36;;;;;;;8.02;4.32;;;4.90;63.80;;;;;;5006727;28;114561;-82
2024/01/02 08:01:03;;;;;;;12.35;4.70;;;4.80;63.70;;;;;;5006856;28;114296;-82
2024/01/02 08:03:31;;;;;;;12.45;4.38;;;4.90;63.80;;;;;;5007407;28;114263;-82
2024/01/02 08:05:58;;;;;;;12.18;4.63;;;4.90;63.90;;;;;;4988664;28;114584;-82
2024/01/02 08:08:29;;;;;;;8.45;4.05;;;4.90;63.90;;;;;;5005024;28;115962;-82
2024/01/02 08:10:58;;;;;;;12.25;4.70;;;4.90;63.80;;;;;;5006168;28;114550;-82
2024/01/02 08:13:25;;;;;;;10.68;3.78;;;4.80;63.90;;;;;;5005886;28;114676;-83
2024/01/02 08:15:55;;;;;;;11.93;3.90;;;4.90;63.90;;;;;;4988900;28;116242;-80
2024/01/02 08:18:25;;;;;;;13.45;4.28;;;4.80;64.10;;;;;;4989342;28;114744;-82
2024/01/02 08:20:53;;;;;;;11.57;4.32;;;4.80;64.10;;;;;;5005303;28;114607;-82
2024/01/02 08:23:20;;;;;;;9.85;3.90;;;4.90;64.20;;;;;;5005775;28;114386;-82
2024/01/02 08:25:49;;;;;;;11.45;4.35;;;4.90;64.00;;;;;;5005759;28;115219;-82
2024/01/02 08:28:18;;;;;;;9.13;3.78;;;4.90;63.80;;;;;;5005955;28;114590;-82
2024/01/02 08:30:45;;;;;;;8.48;3.55;;;4.80;63.70;;;;;;5007217;28;114406;-82
2024/01/02 08:33:13;;;;;;;8.02;3.25;;;4.70;63.90;;;;;;5012687;28;114372;-81
2024/01/02 08:35:40;;;;;;;7.43;3.20;;;4.70;64.10;;;;;;5019420;28;114222;-81
2024/01/02 08:38:08;;;;;;;10.10;3.70;;;4.80;64.00;;;;;;5002608;28;114535;-81
2024/01/02 08:40:36;;;;;;;9.70;3.67;;;4.80;64.10;;;;;;4995361;28;114342;-82
2024/01/02 08:43:04;;;;;;;7.57;3.10;;;4.90;64.00;;;;;;5004309;28;114548;-82
2024/01/02 08:45:34;;;;;;;10.60;3.13;;;4.90;64.00;;;;;;5003483;28;115890;-82
2024/01/02 08:48:03;;;;;;;11.75;3.53;;;5.00;63.90;;;;;;5005526;28;115839;-82
2024/01/02 08:50:31;;;;;;;8.43;2.70;;;5.10;64.10;;;;;;4999774;28;114585;-82
2024/01/02 08:52:59;;;;;;;9.18;2.97;;;5.10;63.70;;;;;;5000229;28;114624;-81
2024/01/02 08:55:26;;;;;;;7.38;2.63;;;5.20;63.60;;;;;;4998666;28;118672;-82
2024/01/02 08:57:54;;;;;;;10.77;3.30;;;5.10;63.30;;;;;;4990077;28;114917;-81
2024/01/02 09:00:21;;;;;;;5.25;2.33;;;5.10;63.30;;;;;;4985359;28;114455;-82
2024/01/02 09:02:48;;;;;;;10.23;3.40;;;5.00;63.20;;;;;;4969029;28;114663;-82
2024/01/02 09:05:16;;;;;;;9.05;3.53;;;4.90;63.30;;;;;;4993800;28;115073;-81
2024/01/02 09:07:44;;;;;;;12.35;3.42;;;4.90;63.40;;;;;;5006021;28;115169;-80
2024/01/02 09:10:11;;;;;;;9.48;3.25;;;4.80;63.50;;;;;;4995734;28;114443;-81
2024/01/02 09:12:39;;;;;;;7.85;3.50;;;4.80;63.50;;;;;;4999272;28;114236;-81
2024/01/02 09:15:08;;;;;;;7.35;3.30;;;4.80;63.70;;;;;;5007769;28;114281;-81
2024/01/02 09:17:35;;;;;;;10.82;3.67;;;4.90;64.00;;;;;;4985472;28;114688;-81
2024/01/02 09:20:04;;;;;;;9.15;4.38;;;5.10;63.80;;;;;;4985958;28;114605;-82
2024/01/02 09:22:32;;;;;;;10.05;4.50;;;5.10;63.40;;;;;;4986308;28;114202;-82
2024/01/02 09:24:59;;;;;;;13.60;5.28;;;5.20;63.40;;;;;;4985203;28;115066;-81
2024/01/02 09:27:29;;;;;;;11.85;4.75;;;5.10;63.40;;;;;;4983733;28;114763;-81
2024/01/02 09:29:58;;;;;;;10.60;4.30;;;5.10;63.30;;;;;;4984643;28;114224;-82
2024/01/02 09:32:26;;;;;;;15.00;4.80;;;5.10;63.70;;;;;;4986525;28;114214;-82
2024/01/02 09:34:54;;;;;;;14.68;5.40;;;5.20;63.80;;;;;;4967656;28;115086;-83
2024/01/02 09:37:21;;;;;;;11.82;4.65;;;5.30;63.90;;;;;;4985173;28;114771;-84
2024/01/02 09:39:53;;;;;;;10.63;4.47;;;5.40;64.00;;;;;;4981279;28;114770;-80
2024/01/02 09:42:46;;;;;;;14.32;5.22;;;5.50;63.80;;;;;;4984952;28;114474;-82
2024/01/02 09:46:03;;;;;;;19.27;5.93;;;5.60;63.60;;;;;;4995282;28;115269;-82
2024/01/02 09:49:16;;;;;;;16.40;6.00;;;5.70;63.20;;;;;;4960713;28;114616;-83
2024/01/02 09:52:21;;;;;;;13.20;6.30;;;5.70;63.40;;;;;;5016368;28;114249;-82
2024/01/02 09:55:19;;;;;;;14.05;5.72;;;5.70;63.40;;;;;;4967675;28;114724;-83
2024/01/02 09:57:59;;;;;;;16.42;5.75;;;5.80;62.70;;;;;;4976409;28;117659;-81
2024/01/02 10:00:33;;;;;;;14.93;5.38;;;5.80;63.20;;;;;;4987285;28;115181;-82
2024/01/02 10:03:36;;;;;;;12.52;5.68;;;5.90;63.10;;;;;;4989122;28;114198;-81
2024/01/02 10:06:44;;;;;;;15.55;4.10;;;6.00;62.40;;;;;;4988012;28;114817;-81
2024/01/02 10:09:58;;;;;;;11.82;3.90;;;6.00;62.10;;;;;;5012144;28;117034;-82
2024/01/02 10:12:37;;;;;;;14.25;4.45;;;6.10;61.70;;;;;;5003958;28;115217;-81
2024/01/02 10:15:12;;;;;;;12.57;3.70;;;6.00;61.00;;;;;;5004500;28;114554;-82
2024/01/02 10:17:48;;;;;;;12.65;4.53;;;5.90;61.20;;;;;;5002399;28;114580;-81
2024/01/02 10:20:48;;;;;;;10.70;3.30;;;6.00;60.90;;;;;;5036273;27;115199;-80
2024/01/02 10:23:34;;;;;;;9.60;3.70;;;6.00;61.00;;;;;;5008594;28;114228;-82
2024/01/02 10:26:05;;;;;;;9.85;3.03;;;5.90;60.70;;;;;;5018948;28;117200;-81
2024/01/02 10:28:32;;;;;;;11.75;3.72;;;5.80;60.60;;;;;;5018272;28;114250;-82
2024/01/02 10:31:18;;;;;;;9.50;3.65;;;5.80;60.70;;;;;;4991912;28;115272;-82
2024/01/02 10:33:51;;;;;;;8.85;2.80;;;5.70;60.20;;;;;;5007353;28;115243;-81
2024/01/02 10:36:22;;;;;;;6.85;2.95;;;5.70;60.80;;;;;;4984981;28;114336;-81
2024/01/02 10:38:59;;;;;;;9.02;3.25;;;5.70;60.90;;;;;;4990150;28;114974;-82
2024/01/02 10:41:30;;;;;;;8.35;3.13;;;5.60;60.90;;;;;;5016837;27;115632;-81
2024/01/02 10:44:11;;;;;;;9.73;3.15;;;5.60;61.10;;;;;;5010519;28;114867;-82
2024/01/02 10:47:02;;;;;;;10.95;3.50;;;5.50;61.20;;;;;;5016719;28;114368;-82
2024/01/02 10:49:42;;;;;;;15.05;4.57;;;5.60;61.40;;;;;;5004638;28;114454;-82
2024/01/02 10:52:23;;;;;;;16.10;5.03;;;5.70;61.40;;;;;;5002375;28;115695;-81
2024/01/02 10:55:19;;;;;;;16.92;6.78;;;5.70;61.30;;;;;;4990912;28;115410;-81
2024/01/02 10:58:10;;;;;;;15.63;4.75;;;5.70;61.20;;;;;;5018597;28;114754;-81
2024/01/02 11:01:06;;;;;;;14.30;5.00;;;5.80;61.10;;;;;;4994730;28;115195;-81
2024/01/02 11:03:50;;;;;;;16.10;5.65;;;5.90;61.10;;;;;;4984598;28;115079;-83
2024/01/02 11:06:58;;;;;;;13.90;5.45;;;5.90;60.80;;;;;;4998954;28;114972;-82
2024/01/02 11:10:03;;;;;;;15.70;5.00;;;6.00;60.70;;;;;;4999771;28;114565;-82
2024/01/02 11:12:57;;;;;;;15.57;4.72;;;6.10;60.40;;;;;;4971465;28;114440;-82
2024/01/02 11:15:41;;;;;;;16.42;4.93;;;6.10;60.80;;;;;;4984564;27;115136;-82
2024/01/02 11:18:08;;;;;;;11.35;4.65;;;6.10;60.60;;;;;;4979014;28;114620;-81
2024/01/02 11:20:41;;;;;;;10.80;3.95;;;6.20;60.50;;;;;;4978718;28;114638;-81
2024/01/02 11:23:15;;;;;;;9.77;3.53;;;6.20;60.20;;;;;;5017615;28;114485;-82
2024/01/02 11:25:49;;;;;;;11.77;2.92;;;6.30;60.00;;;;;;4973381;28;118097;-82
2024/01/02 11:28:34;;;;;;;8.20;2.35;;;6.30;59.50;;;;;;5001506;27;114775;-84
2024/01/02 11:31:01;;;;;;;6.57;2.33;;;6.40;59.30;;;;;;5012357;27;114609;-81
2024/01/02 11:33:46;;;;;;;5.72;1.50;;;6.40;58.60;;;;;;4997258;28;114695;-82
2024/01/02 11:36:28;;;;;;;7.70;1.63;;;6.50;57.60;;;;;;4989871;28;115329;-82
2024/01/02 11:39:16;;;;;;;7.13;2.10;;;6.50;57.60;;;;;;4985471;28;114942;-81
2024/01/02 11:41:46;;;;;;;5.78;1.45;;;6.60;57.50;;;;;;4984016;28;114500;-81
2024/01/02 11:45:17;;;;;;;5.60;2.03;;;6.60;57.60;;;;;;4994052;28;114344;-81
2024/01/02 11:48:12;;;;;;;4.35;1.33;;;6.70;57.10;;;;;;4932326;28;116463;-81
2024/01/02 11:50:55;;;;;;;4.43;1.42;;;6.60;57.40;;;;;;4945569;28;114846;-82
2024/01/02 11:53:53;;;;;;;6.13;1.80;;;6.60;56.90;;;;;;4987657;28;114486;-82
2024/01/02 11:56:22;;;;;;;5.47;1.52;;;6.60;56.90;;;;;;4987538;28;114882;-82
2024/01/02 11:59:20;;;;;;;6.10;2.65;;;6.70;57.10;;;;;;4985900;28;116015;-82
2024/01/02 12:02:14;;;;;;;4.88;1.60;;;6.70;57.00;;;;;;4989817;28;114659;-82
2024/01/02 12:05:04;;;;;;;5.38;1.67;;;6.70;56.90;;;;;;5007356;28;115757;-81
2024/01/02 12:07:32;;;;;;;4.32;1.70;;;6.70;56.80;;;;;;4989515;28;114376;-81
2024/01/02 12:09:59;;;;;;;4.75;2.13;;;6.80;57.10;;;;;;5009245;28;117140;-83
2024/01/02 12:12:54;;;;;;;6.82;2.60;;;6.80;57.30;;;;;;4990074;28;114276;-82
2024/01/02 12:15:45;;;;;;;;;;;6.90;56.80;;;;;;4986407;28;114523;-82
2024/01/02 12:18:12;;;;;;;10.18;3.00;;;6.80;57.30;;;;;;4992710;28;114378;-82
2024/01/02 12:20:58;;;;;;;8.68;2.75;;;6.80;57.00;;;;;;4972648;28;115097;-81
2024/01/02 12:23:26;;;;;;;7.47;2.92;;;6.70;56.40;;;;;;5004869;28;115184;-82
2024/01/02 12:25:59;;;;;;;8.98;3.67;;;6.60;56.40;;;;;;5000202;28;114459;-82
2024/01/02 12:28:26;;;;;;;7.85;2.60;;;6.50;56.40;;;;;;4986921;28;114568;-82
2024/01/02 12:31:34;;;;;;;7.95;3.78;;;6.40;56.60;;;;;;4968526;28;115218;-82
2024/01/02 12:34:09;;;;;;;9.68;3.17;;;6.30;57.10;;;;;;4951068;28;116140;-81
2024/01/02 12:36:47;;;;;;;7.95;2.90;;;6.40;57.40;;;;;;4985936;28;114331;-81
2024/01/02 12:39:18;;;;;;;9.98;3.63;;;6.40;57.50;;;;;;4971231;28;114427;-82
2024/01/02 12:41:52;;;;;;;7.53;2.50;;;6.40;57.00;;;;;;4976047;28;114824;-82
2024/01/02 12:44:22;;;;;;;7.75;3.13;;;6.40;56.70;;;;;;4973240;28;114658;-82
2024/01/02 12:46:58;;;;;;;4.80;1.92;;;6.40;56.80;;;;;;4987160;28;114251;-82
2024/01/02 12:49:29;;;;;;;5.70;2.03;;;6.40;56.20;;;;;;4985775;28;114571;-82
2024/01/02 12:52:02;;;;;;;5.70;1.70;;;6.50;55.70;;;;;;4968804;28;114992;-82
2024/01/02 12:54:30;;;;;;;6.05;1.63;;;6.50;55.20;;;;;;4982993;28;114955;-80
2024/01/02 12:57:02;;;;;;;4.10;1.50;;;6.50;55.00;;;;;;4979174;28;114435;-81
2024/01/02 12:59:33;;;;;;;5.00;1.30;;;6.50;54.60;;;;;;4972379;28;114456;-81
2024/01/02 13:02:06;;;;;;;4.85;1.77;;;6.50;54.70;;;;;;4968355;28;116328;-82
2024/01/02 13:04:36;;;;;;;4.13;1.35;;;6.60;54.80;;;;;;4971564;28;116812;-82
2024/01/02 13:07:06;;;;;;;6.40;2.13;;;6.60;54.60;;;;;;4984978;28;114507;-82